createdAt,value
2023-05-01T00:02:10.620Z,99601.13
2023-05-01T00:04:37.630Z,99603.50
2023-05-01T00:07:04.768Z,99600.09
2023-05-01T00:09:32.344Z,99604.59
2023-05-01T00:11:59.238Z,99602.31
2023-05-01T00:14:26.049Z,99607.78
2023-05-01T00:16:53.034Z,99605.13
2023-05-01T00:19:20.176Z,99608.88
2023-05-01T00:21:48.457Z,99605.41
2023-05-01T00:24:17.349Z,99605.09
2023-05-01T00:26:47.062Z,99603.72
2023-05-01T00:29:14.417Z,99600.91
2023-05-01T00:31:42.750Z,99602.50
2023-05-01T00:34:11.622Z,99608.25
2023-05-01T00:36:38.798Z,99620.03
2023-05-01T00:39:07.954Z,99613.78
2023-05-01T00:41:37.721Z,99622.13
2023-05-01T00:44:04.916Z,99622.44
2023-05-01T00:46:32.493Z,99573.78
2023-05-01T00:49:00.073Z,99610.38
2023-05-01T00:51:29.434Z,99610.38
2023-05-01T00:53:56.670Z,99617.66
2023-05-01T00:56:23.527Z,99615.19
2023-05-01T00:58:54.196Z,99618.41
2023-05-01T01:01:21.934Z,99623.88
2023-05-01T01:03:49.301Z,99625.53
2023-05-01T01:06:33.591Z,99628.84
2023-05-01T01:09:09.246Z,99634.59
2023-05-01T01:11:51.528Z,99635.13
2023-05-01T01:14:25.198Z,99639.50
2023-05-01T01:16:57.573Z,99647.34
2023-05-01T01:19:42.830Z,99637.47
2023-05-01T01:22:15.493Z,99607.56
2023-05-01T01:25:16.022Z,99646.56
2023-05-01T01:28:23.341Z,99642.69
2023-05-01T01:31:14.364Z,99641.59
2023-05-01T01:33:49.255Z,99647.06
2023-05-01T01:36:20.428Z,99650.44
2023-05-01T01:39:12.007Z,99660.03
2023-05-01T01:41:41.530Z,99658.34
2023-05-01T01:44:15.945Z,99654.16
2023-05-01T01:46:43.278Z,99658.06
2023-05-01T01:49:20.256Z,99661.72
2023-05-01T01:51:50.103Z,99661.00
2023-05-01T01:54:26.699Z,99667.44
2023-05-01T01:56:55.426Z,99667.72
2023-05-01T01:59:24.482Z,99669.34
2023-05-01T02:01:53.625Z,99671.06
2023-05-01T02:04:22.387Z,99671.44
2023-05-01T02:06:50.074Z,99673.50
2023-05-01T02:09:19.564Z,99674.66
2023-05-01T02:11:47.183Z,99675.66
2023-05-01T02:14:16.369Z,99678.66
2023-05-01T02:16:45.147Z,99665.66
2023-05-01T02:19:14.822Z,99677.47
2023-05-01T02:21:42.906Z,99684.31
2023-05-01T02:24:12.332Z,99679.41
2023-05-01T02:26:49.252Z,99681.63
2023-05-01T02:29:16.241Z,99672.69
2023-05-01T02:31:43.939Z,99680.44
2023-05-01T02:34:11.572Z,99690.78
2023-05-01T02:36:38.474Z,99692.00
2023-05-01T02:39:05.741Z,99689.00
2023-05-01T02:41:35.298Z,99677.91
2023-05-01T02:44:05.895Z,99694.91
2023-05-01T02:46:36.989Z,99693.66
2023-05-01T02:49:06.030Z,99697.75
2023-05-01T02:51:35.053Z,99699.56
2023-05-01T02:54:03.395Z,99706.91
2023-05-01T02:56:31.570Z,99699.72
2023-05-01T02:58:58.515Z,99704.41
2023-05-01T03:01:26.013Z,99708.97
2023-05-01T03:03:53.064Z,99718.44
2023-05-01T03:06:20.123Z,99716.22
2023-05-01T03:08:47.935Z,99711.00
2023-05-01T03:11:15.741Z,99713.47
2023-05-01T03:13:42.602Z,99722.72
2023-05-01T03:16:09.538Z,99724.53
2023-05-01T03:18:36.639Z,99728.19
2023-05-01T03:21:03.867Z,99724.09
2023-05-01T03:23:31.664Z,99727.72
2023-05-01T03:25:59.583Z,99725.78
2023-05-01T03:28:26.532Z,99737.22
2023-05-01T03:30:53.602Z,99731.28
2023-05-01T03:33:20.630Z,99734.88
2023-05-01T03:35:48.089Z,99736.56
2023-05-01T03:38:18.091Z,99733.06
2023-05-01T03:41:05.443Z,99738.72
2023-05-01T03:43:51.161Z,99746.81
2023-05-01T03:46:38.484Z,99742.50
2023-05-01T03:49:07.640Z,99749.38
2023-05-01T03:51:42.519Z,99753.69
2023-05-01T03:54:09.337Z,99753.84
2023-05-01T03:56:51.961Z,99762.00
2023-05-01T03:59:19.983Z,99766.13
2023-05-01T04:01:46.827Z,99770.56
2023-05-01T04:04:14.097Z,99778.88
2023-05-01T04:06:44.833Z,99772.75
2023-05-01T04:09:12.446Z,99773.94
2023-05-01T04:11:39.244Z,99780.44
2023-05-01T04:14:06.157Z,99778.03
2023-05-01T04:16:36.154Z,99777.91
2023-05-01T04:19:03.672Z,99792.25
2023-05-01T04:21:32.945Z,99787.78
2023-05-01T04:24:00.126Z,99783.94
2023-05-01T04:26:29.763Z,99785.72
2023-05-01T04:28:56.624Z,99791.75
2023-05-01T04:31:25.743Z,99799.09
2023-05-01T04:33:52.932Z,99803.50
2023-05-01T04:36:20.385Z,99807.13
2023-05-01T04:38:47.293Z,99809.53
2023-05-01T04:41:14.307Z,99815.38
2023-05-01T04:43:41.199Z,99813.91
2023-05-01T04:46:08.918Z,99817.13
2023-05-01T04:48:36.401Z,99816.84
2023-05-01T04:51:04.222Z,99814.88
2023-05-01T04:53:33.980Z,99828.84
2023-05-01T04:56:02.525Z,99829.09
2023-05-01T04:58:31.023Z,99823.22
2023-05-01T05:01:03.131Z,99818.81
2023-05-01T05:03:30.146Z,99835.13
2023-05-01T05:05:57.609Z,99837.75
2023-05-01T05:08:24.503Z,99845.00
2023-05-01T05:11:01.363Z,99847.31
2023-05-01T05:13:37.541Z,99851.41
2023-05-01T05:16:11.052Z,99853.72
2023-05-01T05:18:39.013Z,99857.72
2023-05-01T05:21:06.905Z,99870.59
2023-05-01T05:23:33.877Z,99869.72
2023-05-01T05:26:04.066Z,99873.63
2023-05-01T05:28:31.553Z,99878.34
2023-05-01T05:30:58.987Z,99883.00
2023-05-01T05:33:27.322Z,99893.22
2023-05-01T05:35:55.241Z,99903.78
2023-05-01T05:38:26.150Z,99900.03
2023-05-01T05:40:56.308Z,99902.19
2023-05-01T05:43:26.604Z,99915.03
2023-05-01T05:45:59.320Z,99912.47
2023-05-01T05:48:27.887Z,99916.28
2023-05-01T05:50:55.095Z,99912.19
2023-05-01T05:53:24.278Z,99922.66
2023-05-01T05:55:53.413Z,99911.75
2023-05-01T05:58:20.387Z,99915.16
2023-05-01T06:00:56.123Z,99914.84
2023-05-01T06:03:23.717Z,99917.41
2023-05-01T06:05:53.639Z,99916.41
2023-05-01T06:08:20.590Z,99914.56
2023-05-01T06:10:48.091Z,99921.31
2023-05-01T06:13:15.612Z,99917.09
2023-05-01T06:15:46.207Z,99919.88
2023-05-01T06:18:13.337Z,99926.44
2023-05-01T06:20:40.597Z,99906.81
2023-05-01T06:23:10.191Z,99928.75
2023-05-01T06:26:10.914Z,99932.94
2023-05-01T06:28:38.000Z,99931.50
2023-05-01T06:31:05.700Z,99935.41
2023-05-01T06:33:36.935Z,99936.56
2023-05-01T06:36:15.608Z,99941.47
2023-05-01T06:38:48.687Z,99944.50
2023-05-01T06:41:17.038Z,99939.72
2023-05-01T06:43:45.242Z,99944.34
2023-05-01T06:46:12.657Z,99950.59
2023-05-01T06:48:39.615Z,99950.59
2023-05-01T06:51:06.525Z,99950.28
2023-05-01T06:53:33.450Z,99950.66
2023-05-01T06:56:00.403Z,99961.06
2023-05-01T06:58:27.372Z,99957.47
2023-05-01T07:00:54.723Z,99959.34
2023-05-01T07:03:24.772Z,99953.59
2023-05-01T07:05:51.605Z,99953.53
2023-05-01T07:08:18.387Z,99960.41
2023-05-01T07:10:45.424Z,99955.13
2023-05-01T07:13:12.311Z,99963.78
2023-05-01T07:15:39.177Z,99972.78
2023-05-01T07:18:06.283Z,99971.66
2023-05-01T07:20:34.203Z,99973.72
2023-05-01T07:23:01.064Z,99975.78
2023-05-01T07:25:28.032Z,99971.13
2023-05-01T07:27:55.058Z,99969.78
2023-05-01T07:30:22.022Z,99980.31
2023-05-01T07:32:49.050Z,99978.16
2023-05-01T07:35:15.945Z,99989.53
2023-05-01T07:37:43.084Z,99983.19
2023-05-01T07:40:10.443Z,99978.53
2023-05-01T07:42:37.240Z,99980.22
2023-05-01T07:45:04.371Z,99981.38
2023-05-01T07:47:31.203Z,99979.03
2023-05-01T07:49:58.499Z,99980.88
2023-05-01T07:52:26.281Z,99985.59
2023-05-01T07:54:53.468Z,99985.91
2023-05-01T07:57:20.540Z,99986.75
2023-05-01T07:59:47.877Z,99994.31
2023-05-01T08:02:17.583Z,99993.94
2023-05-01T08:04:46.208Z,99998.25
2023-05-01T08:07:13.075Z,100002.56
2023-05-01T08:09:39.962Z,100007.25
2023-05-01T08:12:07.157Z,100011.63
2023-05-01T08:14:34.074Z,100020.00
2023-05-01T08:17:00.924Z,100011.59
2023-05-01T08:19:28.121Z,100014.19
2023-05-01T08:21:54.969Z,100016.06
2023-05-01T08:24:21.812Z,100009.25
2023-05-01T08:26:49.044Z,100014.72
2023-05-01T08:29:15.966Z,100010.41
2023-05-01T08:31:43.948Z,100009.09
2023-05-01T08:34:10.991Z,100007.53
2023-05-01T08:36:38.373Z,100008.41
2023-05-01T08:39:05.466Z,100005.03
2023-05-01T08:41:32.968Z,99997.16
2023-05-01T08:44:04.291Z,100005.16
2023-05-01T08:46:44.825Z,100008.09
2023-05-01T08:49:16.812Z,100021.75
2023-05-01T08:51:50.097Z,100027.22
2023-05-01T08:54:19.912Z,99986.81
2023-05-01T08:56:47.627Z,100009.06
2023-05-01T08:59:16.018Z,100009.78
2023-05-01T09:01:44.500Z,100012.78
2023-05-01T09:04:12.177Z,100009.56
2023-05-01T09:06:39.589Z,100008.50
2023-05-01T09:09:06.746Z,100002.53
2023-05-01T09:11:33.775Z,100004.75
2023-05-01T09:14:01.894Z,99999.50
2023-05-01T09:16:29.814Z,100012.22
2023-05-01T09:18:59.457Z,100002.19
2023-05-01T09:21:28.376Z,99998.78
2023-05-01T09:23:55.284Z,99997.97
2023-05-01T09:26:22.089Z,100006.59
2023-05-01T09:28:49.021Z,99999.72
2023-05-01T09:31:25.672Z,100009.88
2023-05-01T09:33:54.728Z,100003.44
2023-05-01T09:36:23.716Z,100007.63
2023-05-01T09:38:51.266Z,100006.69
2023-05-01T09:41:20.972Z,100010.00
2023-05-01T09:43:55.557Z,100007.63
2023-05-01T09:46:24.621Z,100002.41
2023-05-01T09:49:03.381Z,100011.97
2023-05-01T09:51:33.096Z,100005.09
2023-05-01T09:54:02.612Z,100002.44
2023-05-01T09:56:34.461Z,100015.72
2023-05-01T09:59:19.641Z,100007.91
2023-05-01T10:01:49.474Z,100010.72
2023-05-01T10:04:16.491Z,100002.66
2023-05-01T10:06:43.805Z,100009.44
2023-05-01T10:09:17.842Z,100007.81
2023-05-01T10:11:55.878Z,100013.50
2023-05-01T10:14:28.253Z,100005.59
2023-05-01T10:16:57.979Z,100011.75
2023-05-01T10:19:25.307Z,99999.28
2023-05-01T10:21:53.573Z,100012.03
2023-05-01T10:24:21.004Z,100001.28
2023-05-01T10:26:50.096Z,100011.22
2023-05-01T10:29:19.541Z,100001.19
2023-05-01T10:31:46.642Z,100009.69
2023-05-01T10:34:18.322Z,100008.09
2023-05-01T10:36:54.893Z,100010.72
2023-05-01T10:39:36.278Z,100009.38
2023-05-01T10:42:16.653Z,100001.28
2023-05-01T10:44:44.291Z,100004.72
2023-05-01T10:47:27.902Z,100004.06
2023-05-01T10:50:04.561Z,100006.63
2023-05-01T10:52:51.671Z,100000.91
2023-05-01T10:55:35.308Z,99999.97
2023-05-01T10:58:02.292Z,100005.50
2023-05-01T11:00:29.161Z,100006.09
2023-05-01T11:03:25.529Z,100007.84
2023-05-01T11:06:03.125Z,99999.56
2023-05-01T11:08:30.464Z,100004.53
2023-05-01T11:10:57.364Z,99994.34
2023-05-01T11:14:01.698Z,100002.31
2023-05-01T11:16:40.755Z,99997.06
2023-05-01T11:19:09.802Z,99999.41
2023-05-01T11:21:38.946Z,99999.22
2023-05-01T11:24:09.331Z,100000.84
2023-05-01T11:26:41.188Z,99998.63
2023-05-01T11:29:10.501Z,100004.28
2023-05-01T11:31:37.901Z,99999.41
2023-05-01T11:34:07.227Z,100001.16
2023-05-01T11:39:01.069Z,99994.38
2023-05-01T11:41:28.537Z,99994.47
2023-05-01T11:43:58.262Z,99993.75
2023-05-01T11:46:29.633Z,99988.25
2023-05-01T11:48:57.710Z,99991.50
2023-05-01T11:51:26.848Z,99994.91
2023-05-01T11:54:08.088Z,99982.34
2023-05-01T11:56:36.836Z,99984.47
2023-05-01T11:59:17.225Z,99991.19
2023-05-01T12:01:46.057Z,99985.66
2023-05-01T12:04:23.222Z,99986.47
2023-05-01T12:06:51.456Z,99994.13
2023-05-01T12:09:38.643Z,99983.50
2023-05-01T12:12:06.051Z,99973.69
2023-05-01T12:14:33.255Z,99981.63
2023-05-01T12:17:00.377Z,99984.03
2023-05-01T12:19:27.286Z,99983.97
2023-05-01T12:22:14.466Z,99974.06
2023-05-01T12:24:54.353Z,99979.47
2023-05-01T12:27:21.473Z,99976.94
2023-05-01T12:29:48.435Z,99975.75
2023-05-01T12:32:17.007Z,99968.38
2023-05-01T12:34:43.939Z,99983.66
2023-05-01T12:37:11.230Z,99988.47
2023-05-01T12:39:44.786Z,99977.91
2023-05-01T12:42:14.320Z,99978.81
2023-05-01T12:44:41.442Z,99975.94
2023-05-01T12:47:09.878Z,99980.41
2023-05-01T12:49:37.800Z,99982.34
2023-05-01T12:52:07.561Z,99979.38
2023-05-01T12:54:39.871Z,99978.38
2023-05-01T12:57:16.662Z,99973.13
2023-05-01T12:59:45.787Z,99975.19
2023-05-01T13:02:16.253Z,99973.50
2023-05-01T13:04:44.198Z,99970.00
2023-05-01T13:07:16.686Z,99974.84
2023-05-01T13:09:57.943Z,99969.53
2023-05-01T13:12:26.822Z,99972.91
2023-05-01T13:14:54.625Z,99971.78
2023-05-01T13:17:32.294Z,99969.59
2023-05-01T13:20:05.096Z,99968.38
2023-05-01T13:22:34.242Z,99957.19
2023-05-01T13:25:03.965Z,99969.78
2023-05-01T13:27:30.892Z,99970.03
2023-05-01T13:29:59.904Z,99925.25
2023-05-01T13:32:28.440Z,99977.06
2023-05-01T13:34:56.204Z,99970.19
2023-05-01T13:37:23.247Z,99976.72
2023-05-01T13:39:50.087Z,99985.25
2023-05-01T13:42:25.897Z,99981.34
2023-05-01T13:44:57.485Z,99983.75
2023-05-01T13:47:28.999Z,99977.34
2023-05-01T13:49:56.730Z,99982.72
2023-05-01T13:52:24.552Z,99981.78
2023-05-01T13:54:55.993Z,99987.09
2023-05-01T13:57:23.221Z,99984.75
2023-05-01T13:59:50.064Z,99984.69
2023-05-01T14:02:25.303Z,99983.72
2023-05-01T14:04:52.446Z,99990.41
2023-05-01T14:07:21.079Z,99995.63
2023-05-01T14:09:56.038Z,99953.41
2023-05-01T14:12:31.369Z,99986.94
2023-05-01T14:15:00.394Z,99983.97
2023-05-01T14:17:33.378Z,99992.88
2023-05-01T14:20:00.868Z,99985.59
2023-05-01T14:22:43.774Z,99993.78
2023-05-01T14:25:24.702Z,99994.22
2023-05-01T14:27:53.799Z,99998.09
2023-05-01T14:30:33.725Z,99997.50
2023-05-01T14:33:06.794Z,99993.72
2023-05-01T14:35:34.781Z,100002.34
2023-05-01T14:38:09.165Z,99987.22
2023-05-01T14:40:36.109Z,99989.75
2023-05-01T14:43:03.664Z,99991.75
2023-05-01T14:45:30.938Z,100003.53
2023-05-01T14:47:58.095Z,99998.78
2023-05-01T14:50:25.584Z,99998.91
2023-05-01T14:52:57.426Z,99997.41
2023-05-01T14:55:29.564Z,100007.13
2023-05-01T14:57:57.102Z,99999.88
2023-05-01T15:00:25.090Z,100000.78
2023-05-01T15:02:52.252Z,99998.81
2023-05-01T15:05:19.249Z,100007.75
2023-05-01T15:07:46.894Z,100001.91
2023-05-01T15:10:13.851Z,100005.53
2023-05-01T15:12:40.866Z,100002.78
2023-05-01T15:15:09.665Z,100000.66
2023-05-01T15:17:36.790Z,100003.25
2023-05-01T15:20:03.942Z,100013.84
2023-05-01T15:22:31.373Z,100014.25
2023-05-01T15:24:58.452Z,100011.16
2023-05-01T15:27:26.666Z,100010.50
2023-05-01T15:29:53.564Z,100010.97
2023-05-01T15:32:20.405Z,100011.47
2023-05-01T15:34:47.360Z,100011.56
2023-05-01T15:37:14.272Z,100012.41
2023-05-01T15:39:41.129Z,100016.84
2023-05-01T15:42:08.157Z,100014.47
2023-05-01T15:44:34.995Z,100030.50
2023-05-01T15:47:02.040Z,100019.00
2023-05-01T15:49:29.010Z,100017.22
2023-05-01T15:51:56.161Z,100015.72
2023-05-01T15:54:24.674Z,100015.34
2023-05-01T15:56:51.707Z,100027.56
2023-05-01T15:59:18.509Z,100021.13
2023-05-01T16:01:45.536Z,100024.09
2023-05-01T16:04:12.460Z,100024.84
2023-05-01T16:06:40.959Z,100018.03
2023-05-01T16:09:08.011Z,100023.75
2023-05-01T16:11:35.788Z,100028.41
2023-05-01T16:14:02.932Z,100032.13
2023-05-01T16:16:30.129Z,100029.81
2023-05-01T16:18:58.889Z,100031.13
2023-05-01T16:21:27.322Z,100036.88
2023-05-01T16:23:57.505Z,100039.56
2023-05-01T16:26:28.386Z,100045.56
2023-05-01T16:29:13.600Z,100051.72
2023-05-01T16:31:47.644Z,100045.84
2023-05-01T16:34:18.142Z,100054.88
2023-05-01T16:36:46.905Z,100048.41
2023-05-01T16:39:18.868Z,100053.59
2023-05-01T16:41:50.576Z,100053.25
2023-05-01T16:44:18.506Z,100053.31
2023-05-01T16:46:56.210Z,100053.78
2023-05-01T16:49:23.725Z,100058.72
2023-05-01T16:51:50.924Z,100066.09
2023-05-01T16:54:18.146Z,100059.06
2023-05-01T16:56:45.000Z,100063.06
2023-05-01T16:59:11.908Z,100064.72
2023-05-01T17:01:38.741Z,100080.63
2023-05-01T17:04:06.240Z,100084.66
2023-05-01T17:06:33.494Z,100077.78
2023-05-01T17:09:00.571Z,100089.88
2023-05-01T17:11:29.122Z,100094.19
2023-05-01T17:13:57.202Z,100089.13
2023-05-01T17:16:24.177Z,100098.19
2023-05-01T17:18:51.057Z,100099.50
2023-05-01T17:21:18.609Z,100105.31
2023-05-01T17:23:45.665Z,100103.78
2023-05-01T17:26:15.949Z,100104.44
2023-05-01T17:28:45.369Z,100109.59
2023-05-01T17:31:12.341Z,100104.91
2023-05-01T17:33:39.263Z,100104.16
2023-05-01T17:36:06.318Z,100105.56
2023-05-01T17:38:33.171Z,100109.84
2023-05-01T17:41:00.115Z,100109.31
2023-05-01T17:43:27.035Z,100117.38
2023-05-01T17:45:53.931Z,100121.50
2023-05-01T17:48:20.863Z,100123.13
2023-05-01T17:50:47.761Z,100117.44
2023-05-01T17:53:14.670Z,100127.22
2023-05-01T17:55:41.732Z,100134.94
2023-05-01T17:58:08.618Z,100136.84
2023-05-01T18:00:35.780Z,100138.69
2023-05-01T18:03:02.958Z,100135.53
2023-05-01T18:05:30.042Z,100137.84
2023-05-01T18:07:56.916Z,100151.50
2023-05-01T18:10:23.941Z,100154.03
2023-05-01T18:12:51.424Z,100158.00
2023-05-01T18:15:22.586Z,100161.81
2023-05-01T18:17:50.065Z,100169.09
2023-05-01T18:20:17.277Z,100174.59
2023-05-01T18:22:44.471Z,100172.84
2023-05-01T18:25:11.586Z,100176.13
2023-05-01T18:27:38.956Z,100181.88
2023-05-01T18:30:06.418Z,100186.84
2023-05-01T18:32:46.300Z,100189.16
2023-05-01T18:35:15.786Z,100193.84
2023-05-01T18:37:44.135Z,100202.59
2023-05-01T18:40:11.713Z,100199.00
2023-05-01T18:42:41.275Z,100206.91
2023-05-01T18:45:10.056Z,100210.38
2023-05-01T18:47:37.021Z,100210.53
2023-05-01T18:50:05.211Z,100216.03
2023-05-01T18:52:32.166Z,100221.06
2023-05-01T18:54:59.288Z,100227.41
2023-05-01T18:57:27.774Z,100226.88
2023-05-01T18:59:54.585Z,100231.78
2023-05-01T19:02:21.601Z,100240.44
2023-05-01T19:04:57.415Z,100237.34
2023-05-01T19:07:26.619Z,100238.34
2023-05-01T19:09:53.688Z,100248.03
2023-05-01T19:12:20.653Z,100248.47
2023-05-01T19:14:47.492Z,100246.47
2023-05-01T19:17:14.362Z,100252.16
2023-05-01T19:19:41.153Z,100256.06
2023-05-01T19:22:08.110Z,100255.94
2023-05-01T19:24:34.943Z,100253.25
2023-05-01T19:27:03.501Z,100261.97
2023-05-01T19:29:33.710Z,100266.94
2023-05-01T19:32:00.713Z,100262.13
2023-05-01T19:34:28.384Z,100274.09
2023-05-01T19:36:57.116Z,100276.47
2023-05-01T19:39:24.262Z,100285.28
2023-05-01T19:41:51.356Z,100295.22
2023-05-01T19:44:18.320Z,100288.59
2023-05-01T19:46:45.276Z,100293.91
2023-05-01T19:49:12.497Z,100289.59
2023-05-01T19:51:39.288Z,100287.47
2023-05-01T19:54:06.150Z,100288.19
2023-05-01T19:56:32.992Z,100294.56
2023-05-01T19:58:59.851Z,100290.28
2023-05-01T20:01:29.845Z,100282.81
2023-05-01T20:03:57.032Z,100292.59
2023-05-01T20:06:23.964Z,100292.00
2023-05-01T20:08:50.918Z,100293.22
2023-05-01T20:11:17.908Z,100296.94
2023-05-01T20:13:45.558Z,100294.28
2023-05-01T20:16:12.508Z,100305.69
2023-05-01T20:18:39.484Z,100311.50
2023-05-01T20:21:07.585Z,100311.44
2023-05-01T20:23:35.188Z,100306.09
2023-05-01T20:26:02.094Z,100307.97
2023-05-01T20:28:29.329Z,100308.06
2023-05-01T20:30:56.787Z,100317.13
2023-05-01T20:33:23.781Z,100309.19
2023-05-01T20:35:51.462Z,100321.72
2023-05-01T20:38:18.450Z,100322.84
2023-05-01T20:40:45.282Z,100326.06
2023-05-01T20:43:12.126Z,100321.47
2023-05-01T20:45:39.534Z,100319.19
2023-05-01T20:48:06.567Z,100321.59
2023-05-01T20:50:33.521Z,100317.63
2023-05-01T20:53:00.376Z,100323.84
2023-05-01T20:55:28.253Z,100322.88
2023-05-01T20:57:56.052Z,100325.28
2023-05-01T21:00:22.941Z,100323.13
2023-05-01T21:02:52.038Z,100330.88
2023-05-01T21:05:19.018Z,100330.66
2023-05-01T21:07:45.853Z,100328.38
2023-05-01T21:10:14.557Z,100333.00
2023-05-01T21:12:41.660Z,100329.75
2023-05-01T21:15:09.215Z,100328.09
2023-05-01T21:17:37.108Z,100326.38
2023-05-01T21:20:10.177Z,100327.59
2023-05-01T21:22:37.041Z,100323.59
2023-05-01T21:25:04.354Z,100320.34
2023-05-01T21:27:31.280Z,100320.47
2023-05-01T21:29:59.549Z,100327.00
2023-05-01T21:32:33.671Z,100330.03
2023-05-01T21:35:01.089Z,100333.34
2023-05-01T21:37:29.327Z,100333.44
2023-05-01T21:39:59.490Z,100324.16
2023-05-01T21:42:34.580Z,100333.56
2023-05-01T21:45:07.018Z,100333.22
2023-05-01T21:47:39.441Z,100333.44
2023-05-01T21:50:09.837Z,100336.22
2023-05-01T21:52:36.798Z,100338.81
2023-05-01T21:55:08.798Z,100335.94
2023-05-01T21:57:37.015Z,100340.09
2023-05-01T22:00:09.426Z,100339.84
2023-05-01T22:02:46.637Z,100335.88
2023-05-01T22:05:15.515Z,100340.56
2023-05-01T22:07:45.141Z,100339.63
2023-05-01T22:10:14.428Z,100340.31
2023-05-01T22:12:41.670Z,100333.94
2023-05-01T22:15:12.725Z,100341.78
2023-05-01T22:17:39.975Z,100342.50
2023-05-01T22:20:07.793Z,100337.44
2023-05-01T22:22:35.343Z,100343.66
2023-05-01T22:25:03.086Z,100336.56
2023-05-01T22:27:30.409Z,100339.22
2023-05-01T22:29:57.673Z,100338.28
2023-05-01T22:32:24.968Z,100332.53
2023-05-01T22:34:51.848Z,100332.31
2023-05-01T22:37:19.722Z,100331.03
2023-05-01T22:39:46.666Z,100331.59
2023-05-01T22:42:13.925Z,100330.84
2023-05-01T22:44:41.040Z,100342.44
2023-05-01T22:47:08.018Z,100339.19
2023-05-01T22:49:34.821Z,100329.13
2023-05-01T22:52:02.384Z,100328.38
2023-05-01T22:54:29.271Z,100323.25
2023-05-01T22:56:56.333Z,100320.31
2023-05-01T22:59:23.285Z,100325.00
2023-05-01T23:01:50.326Z,100319.47
2023-05-01T23:04:17.372Z,100330.53
2023-05-01T23:06:44.791Z,100336.69
2023-05-01T23:09:12.085Z,100335.34
2023-05-01T23:11:41.506Z,100333.13
2023-05-01T23:14:08.372Z,100334.91
2023-05-01T23:16:42.294Z,100337.31
2023-05-01T23:19:23.579Z,100332.84
2023-05-01T23:22:02.675Z,100333.31
2023-05-01T23:24:51.138Z,100326.56
2023-05-01T23:27:19.555Z,100334.59
2023-05-01T23:29:54.863Z,100333.72
2023-05-01T23:32:27.926Z,100332.06
2023-05-01T23:34:55.935Z,100322.59
2023-05-01T23:37:22.758Z,100331.19
2023-05-01T23:39:49.611Z,100334.84
2023-05-01T23:42:16.460Z,100331.22
2023-05-01T23:44:43.306Z,100338.88
2023-05-01T23:47:10.700Z,100339.88
2023-05-01T23:49:38.229Z,100334.03
2023-05-01T23:52:06.785Z,100335.22
2023-05-01T23:54:33.685Z,100327.94
2023-05-01T23:57:00.929Z,100326.47
2023-05-01T23:59:27.956Z,100326.47
